Time;durP1;ratioP1;P1;durP2;ratioP2;P2;SDS_P1;SDS_P2;PMS_P1;PMS_P2;Temp;Humidity;BMP_temperature;BMP_pressure;BME280_temperature;BME280_humidity;BME280_pressure;Samples;Min_cycle;Max_cycle;Signal;HPM_P1;HPM_P2
2021/03/27 00:01:54;;;;;;;7.05;4.45;;;8.20;99.90;;;;;;4995655;28;20034;-94
2021/03/27 00:04:42;;;;;;;7.80;4.30;;;8.10;99.90;;;;;;4995121;28;20047;-91
2021/03/27 00:07:11;;;;;;;5.00;3.45;;;7.90;99.90;;;;;;4996514;28;20053;-94
2021/03/27 00:09:50;;;;;;;8.45;3.38;;;7.80;99.90;;;;;;5000452;28;20050;-93
2021/03/27 00:12:34;;;;;;;6.45;3.70;;;7.70;99.90;;;;;;5006778;28;20046;-93
2021/03/27 00:15:39;;;;;;;6.63;3.17;;;7.60;99.90;;;;;;4978879;28;20062;-94
2021/03/27 00:18:08;;;;;;;4.05;2.58;;;7.50;99.90;;;;;;5009460;28;20057;-95
2021/03/27 00:20:44;;;;;;;3.80;3.00;;;7.40;99.90;;;;;;5010725;28;20040;-93
2021/03/27 00:23:19;;;;;;;3.83;2.75;;;7.40;99.90;;;;;;4993299;28;20048;-94
2021/03/27 00:25:53;;;;;;;5.25;2.55;;;7.30;99.90;;;;;;5010881;28;20052;-94
2021/03/27 00:28:32;;;;;;;2.50;2.20;;;7.20;99.90;;;;;;5006220;28;20042;-92
2021/03/27 00:31:15;;;;;;;4.20;1.92;;;7.20;99.90;;;;;;5006742;28;20379;-94
2021/03/27 00:33:46;;;;;;;8.25;3.17;;;7.20;99.90;;;;;;4996530;28;20030;-94
2021/03/27 00:36:37;;;;;;;4.25;1.90;;;7.10;99.90;;;;;;4994009;28;20046;-93
2021/03/27 00:39:41;;;;;;;4.50;1.63;;;6.90;99.90;;;;;;4999201;28;20437;-91
2021/03/27 00:42:17;;;;;;;4.90;1.35;;;6.80;99.90;;;;;;5012857;28;20418;-92
2021/03/27 00:44:50;;;;;;;4.60;1.30;;;6.60;99.90;;;;;;5013536;28;20517;-92
2021/03/27 00:47:20;;;;;;;8.07;1.40;;;6.50;99.90;;;;;;5013951;28;20045;-93
2021/03/27 00:49:57;;;;;;;4.20;1.10;;;6.50;99.90;;;;;;5010012;28;20508;-94
2021/03/27 00:52:25;;;;;;;2.35;0.90;;;6.30;99.90;;;;;;5009518;28;20049;-92
2021/03/27 00:55:28;;;;;;;3.20;0.82;;;6.10;99.90;;;;;;5014839;28;20498;-93
2021/03/27 00:58:06;;;;;;;2.00;1.10;;;6.10;99.90;;;;;;5002578;28;20545;-95
2021/03/27 01:00:44;;;;;;;8.10;1.45;;;6.00;99.90;;;;;;4997933;28;20038;-94
2021/03/27 01:03:20;;;;;;;6.20;1.10;;;6.00;99.90;;;;;;5002179;28;20061;-95
2021/03/27 01:05:48;;;;;;;4.95;1.40;;;6.10;99.90;;;;;;5005068;28;20057;-95
2021/03/27 01:08:15;;;;;;;6.78;1.00;;;5.80;99.90;;;;;;4991365;28;20497;-95
2021/03/27 01:10:49;;;;;;;4.97;1.08;;;5.80;99.90;;;;;;5007155;28;20042;-95
2021/03/27 01:13:20;;;;;;;3.10;0.85;;;5.70;99.90;;;;;;5012809;28;20046;-95
2021/03/27 01:15:58;;;;;;;4.80;1.10;;;5.70;99.90;;;;;;4996168;28;20034;-94
2021/03/27 01:18:40;;;;;;;4.45;0.93;;;5.60;99.90;;;;;;4996335;28;20069;-92
2021/03/27 01:21:13;;;;;;;6.78;1.23;;;5.70;99.90;;;;;;5026621;28;20041;-95
2021/03/27 01:23:40;;;;;;;4.15;0.95;;;5.50;99.90;;;;;;4991812;28;20073;-94
2021/03/27 01:26:11;;;;;;;6.28;1.40;;;5.50;99.90;;;;;;4993383;28;20038;-95
2021/03/27 01:28:55;;;;;;;5.18;1.10;;;5.50;99.90;;;;;;5013197;28;20496;-95
2021/03/27 01:31:35;;;;;;;3.55;1.33;;;5.50;99.90;;;;;;4996077;28;20064;-95
2021/03/27 01:34:10;;;;;;;5.63;1.00;;;5.50;99.90;;;;;;4996098;28;20034;-95
2021/03/27 01:36:45;;;;;;;8.27;1.30;;;5.40;99.90;;;;;;4997362;28;20065;-94
2021/03/27 01:39:43;;;;;;;5.93;1.40;;;5.50;99.90;;;;;;5003406;28;20096;-94
2021/03/27 01:42:27;;;;;;;3.50;1.25;;;5.50;99.90;;;;;;5007105;28;20038;-94
2021/03/27 01:45:02;;;;;;;3.45;1.30;;;5.50;99.90;;;;;;4990572;28;20445;-94
2021/03/27 01:47:58;;;;;;;3.45;1.30;;;5.50;99.90;;;;;;4995659;28;20041;-92
2021/03/27 01:50:33;;;;;;;6.18;1.35;;;5.50;99.90;;;;;;4996111;28;20038;-95
2021/03/27 01:53:07;;;;;;;4.32;1.40;;;5.50;99.90;;;;;;4996170;28;20045;-94
2021/03/27 01:55:56;;;;;;;5.90;1.85;;;5.50;99.90;;;;;;4991538;28;20046;-94
2021/03/27 01:58:54;;;;;;;4.45;1.55;;;5.40;99.90;;;;;;4989828;28;20053;-94
2021/03/27 02:01:56;;;;;;;3.22;1.30;;;5.50;99.90;;;;;;5006900;28;20065;-94
2021/03/27 02:04:37;;;;;;;5.65;1.20;;;5.40;99.90;;;;;;5009440;28;20135;-93
2021/03/27 02:07:11;;;;;;;7.00;1.25;;;5.50;99.90;;;;;;4982097;28;20574;-93
2021/03/27 02:09:57;;;;;;;6.63;1.30;;;5.50;99.90;;;;;;4994630;28;20034;-92
2021/03/27 02:12:32;;;;;;;3.13;1.20;;;5.50;99.90;;;;;;5010481;28;20061;-91
2021/03/27 02:15:04;;;;;;;3.08;1.15;;;5.50;99.90;;;;;;4994765;28;20045;-93
2021/03/27 02:17:50;;;;;;;3.08;1.60;;;5.40;99.90;;;;;;4994541;28;20044;-92
2021/03/27 02:20:51;;;;;;;8.43;1.20;;;5.50;99.90;;;;;;4978192;28;20459;-93
2021/03/27 02:23:38;;;;;;;2.72;1.38;;;5.50;99.90;;;;;;5011053;28;20057;-93
2021/03/27 02:26:14;;;;;;;4.93;1.45;;;5.50;99.90;;;;;;5010146;28;20097;-93
2021/03/27 02:29:28;;;;;;;4.93;1.05;;;5.50;99.90;;;;;;4994571;28;20050;-93
2021/03/27 02:32:14;;;;;;;2.97;1.20;;;5.60;99.90;;;;;;4995121;28;20086;-95
2021/03/27 02:34:41;;;;;;;5.05;1.38;;;5.50;99.90;;;;;;4995047;28;20383;-94
2021/03/27 02:37:29;;;;;;;3.50;1.15;;;5.60;99.90;;;;;;4988041;28;20101;-93
2021/03/27 02:40:32;;;;;;;2.30;1.25;;;5.50;99.90;;;;;;4993964;28;20482;-94
2021/03/27 02:43:03;;;;;;;1.65;1.00;;;5.50;99.90;;;;;;5006771;28;20050;-95
2021/03/27 02:45:33;;;;;;;4.97;1.20;;;5.50;99.90;;;;;;4980075;28;20069;-94
2021/03/27 02:48:04;;;;;;;4.53;1.08;;;5.50;99.90;;;;;;5009858;28;20050;-94
2021/03/27 02:50:48;;;;;;;2.80;1.05;;;5.50;99.90;;;;;;4996488;28;20038;-95
2021/03/27 02:53:25;;;;;;;1.83;0.88;;;5.50;99.90;;;;;;4995076;28;20474;-94
2021/03/27 02:56:11;;;;;;;1.20;1.00;;;5.50;99.90;;;;;;4988276;28;20494;-93
2021/03/27 02:59:00;;;;;;;4.15;1.23;;;5.50;99.90;;;;;;4994512;28;20486;-93
2021/03/27 03:01:52;;;;;;;8.60;1.83;;;5.50;99.90;;;;;;5011948;28;20042;-94
2021/03/27 03:04:55;;;;;;;2.15;1.02;;;5.50;99.90;;;;;;5008406;28;20042;-94
2021/03/27 03:07:52;;;;;;;3.22;1.13;;;5.40;99.90;;;;;;4998592;28;20426;-94
2021/03/27 03:10:56;;;;;;;7.05;1.55;;;5.50;99.90;;;;;;4969444;28;20116;-93
2021/03/27 03:13:28;;;;;;;7.50;1.50;;;5.50;99.90;;;;;;4977423;28;20057;-93
2021/03/27 03:16:07;;;;;;;4.82;2.15;;;5.40;99.90;;;;;;4975530;28;20049;-95
2021/03/27 03:18:52;;;;;;;5.75;1.90;;;5.50;99.90;;;;;;4995214;28;20042;-94
2021/03/27 03:21:55;;;;;;;4.82;2.00;;;5.50;99.90;;;;;;4994463;28;20129;-92
2021/03/27 03:24:35;;;;;;;4.78;2.75;;;5.50;99.90;;;;;;4993679;28;20093;-91
2021/03/27 03:27:06;;;;;;;8.07;2.58;;;5.50;99.90;;;;;;4994209;28;20133;-92
2021/03/27 03:30:03;;;;;;;10.05;2.22;;;5.50;99.90;;;;;;4978350;28;20042;-93
2021/03/27 03:32:54;;;;;;;5.10;2.50;;;5.50;99.90;;;;;;5011009;28;20029;-93
2021/03/27 03:35:39;;;;;;;6.75;2.55;;;5.50;99.90;;;;;;5007243;28;20475;-90
2021/03/27 03:38:42;;;;;;;8.80;3.70;;;5.60;99.90;;;;;;4997204;28;20413;-92
2021/03/27 03:41:55;;;;;;;6.55;3.65;;;5.60;99.90;;;;;;5004190;28;20049;-93
2021/03/27 03:44:23;;;;;;;6.80;4.65;;;5.60;99.90;;;;;;4931569;29;20051;-91
2021/03/27 03:47:04;;;;;;;;;;;5.60;99.90;;;;;;4926464;29;20132;-92
2021/03/27 03:50:09;;;;;;;8.55;4.75;;;5.60;99.90;;;;;;4960807;28;19921;-92
2021/03/27 03:52:54;;;;;;;15.57;5.90;;;5.70;99.90;;;;;;5010780;28;20057;-93
2021/03/27 03:55:48;;;;;;;12.18;6.65;;;5.70;99.90;;;;;;5009815;28;20065;-92
2021/03/27 03:58:28;;;;;;;13.45;6.40;;;5.70;99.90;;;;;;4995988;28;20046;-92
2021/03/27 04:00:57;;;;;;;;;;;5.70;99.90;;;;;;5011037;28;20121;-92
2021/03/27 04:03:48;;;;;;;12.68;6.15;;;5.70;99.90;;;;;;5012751;28;19938;-92
2021/03/27 04:06:22;;;;;;;13.50;6.72;;;5.70;99.90;;;;;;5017816;28;20112;-93
2021/03/27 04:08:59;;;;;;;14.02;5.93;;;5.70;99.90;;;;;;5014503;28;20078;-92
2021/03/27 04:11:51;;;;;;;12.32;5.47;;;5.70;99.90;;;;;;4997973;28;20069;-93
2021/03/27 04:14:35;;;;;;;13.95;6.78;;;5.70;99.90;;;;;;4997504;28;20034;-92
2021/03/27 04:17:08;;;;;;;13.90;6.70;;;5.70;99.90;;;;;;4996795;28;20087;-93
2021/03/27 04:19:55;;;;;;;12.88;6.68;;;5.80;99.90;;;;;;5014872;28;20061;-93
2021/03/27 04:22:33;;;;;;;13.20;6.45;;;5.80;99.90;;;;;;5015159;28;20045;-92
2021/03/27 04:25:05;;;;;;;15.23;6.95;;;5.80;99.90;;;;;;4997355;28;20177;-92
2021/03/27 04:27:36;;;;;;;15.75;6.75;;;5.80;99.90;;;;;;5006876;28;20057;-90
2021/03/27 04:30:26;;;;;;;19.25;7.38;;;5.80;99.90;;;;;;5013357;28;20037;-93
2021/03/27 04:33:19;;;;;;;16.20;6.72;;;5.80;99.90;;;;;;5013815;28;20124;-94
2021/03/27 04:35:59;;;;;;;18.58;6.72;;;5.80;99.90;;;;;;4997311;28;20082;-94
2021/03/27 04:38:24;;;;;;;20.30;7.13;;;5.80;99.90;;;;;;5000829;28;20129;-92
2021/03/27 04:41:11;;;;;;;8.85;5.75;;;5.70;99.90;;;;;;4996546;28;20132;-92
2021/03/27 04:43:50;;;;;;;13.30;7.00;;;5.60;99.90;;;;;;4997183;28;20064;-92
2021/03/27 04:46:30;;;;;;;24.67;6.93;;;5.60;99.90;;;;;;4994998;28;20483;-92
2021/03/27 04:49:18;;;;;;;23.85;7.63;;;5.50;99.90;;;;;;4990502;28;20066;-92
2021/03/27 04:52:05;;;;;;;19.17;6.57;;;5.40;99.90;;;;;;4999816;28;20046;-93
2021/03/27 04:55:08;;;;;;;22.52;6.18;;;5.30;99.90;;;;;;5010010;28;20039;-91
2021/03/27 04:57:43;;;;;;;21.77;6.63;;;5.30;99.90;;;;;;4981488;28;20137;-92
2021/03/27 05:00:46;;;;;;;19.00;5.47;;;5.30;99.90;;;;;;4993021;28;20073;-92
2021/03/27 05:03:23;;;;;;;20.25;5.95;;;5.30;99.90;;;;;;5013570;28;20088;-92
2021/03/27 05:06:08;;;;;;;17.13;5.38;;;5.20;99.90;;;;;;4994954;28;20049;-91
2021/03/27 05:08:42;;;;;;;17.48;4.70;;;5.10;99.90;;;;;;4998555;28;20049;-92
2021/03/27 05:11:36;;;;;;;19.00;5.53;;;5.10;99.90;;;;;;4995841;28;20052;-92
2021/03/27 05:14:23;;;;;;;15.80;4.80;;;5.10;99.90;;;;;;4996035;28;20046;-93
2021/03/27 05:16:57;;;;;;;20.17;5.00;;;5.10;99.90;;;;;;4995513;28;20042;-93
2021/03/27 05:19:34;;;;;;;16.58;4.18;;;5.00;99.90;;;;;;4995792;28;20761;-92
2021/03/27 05:22:12;;;;;;;20.35;4.55;;;4.90;99.90;;;;;;5012330;28;20072;-92
2021/03/27 05:25:01;;;;;;;23.67;4.82;;;4.90;99.90;;;;;;4995619;28;20033;-92
2021/03/27 05:27:53;;;;;;;25.30;4.90;;;4.90;99.90;;;;;;5013595;28;20042;-91
2021/03/27 05:30:21;;;;;;;17.63;4.07;;;4.80;99.90;;;;;;5009399;28;20050;-93
2021/03/27 05:33:09;;;;;;;28.98;6.22;;;4.80;99.90;;;;;;5012041;28;20653;-94
2021/03/27 05:35:40;;;;;;;19.33;4.35;;;4.90;99.90;;;;;;4995325;28;20561;-93
2021/03/27 05:38:33;;;;;;;14.70;4.38;;;4.90;99.90;;;;;;4994390;28;20504;-93
2021/03/27 05:40:59;;;;;;;21.35;4.47;;;5.00;99.90;;;;;;5009316;28;20560;-93
2021/03/27 05:43:28;;;;;;;20.55;4.60;;;5.00;99.90;;;;;;4994775;28;20046;-94
2021/03/27 05:46:28;;;;;;;14.07;4.43;;;5.00;99.90;;;;;;4994251;28;20053;-94
2021/03/27 05:49:03;;;;;;;;;;;5.10;99.90;;;;;;4994836;28;20044;-93
2021/03/27 05:52:13;;;;;;;14.75;4.57;;;5.10;99.90;;;;;;4994674;28;20262;-93
2021/03/27 05:54:44;;;;;;;14.48;4.25;;;5.20;99.90;;;;;;4995277;28;20070;-92
2021/03/27 05:57:29;;;;;;;25.05;6.15;;;5.20;99.90;;;;;;4994442;28;20482;-91
2021/03/27 06:00:28;;;;;;;18.55;4.55;;;5.40;99.90;;;;;;4993135;28;20058;-93
2021/03/27 06:03:05;;;;;;;17.98;3.88;;;5.30;99.90;;;;;;5004335;28;20065;-92
2021/03/27 06:05:59;;;;;;;7.65;3.20;;;5.30;99.90;;;;;;4995137;28;20046;-91
2021/03/27 06:08:34;;;;;;;10.70;2.45;;;5.40;99.90;;;;;;5008870;28;20042;-92
2021/03/27 06:11:15;;;;;;;9.18;2.80;;;5.40;99.90;;;;;;4994084;28;20073;-91
2021/03/27 06:13:46;;;;;;;10.57;2.58;;;5.40;99.90;;;;;;4978069;28;20453;-91
2021/03/27 06:16:31;;;;;;;5.28;2.13;;;5.40;99.90;;;;;;5010773;28;20037;-92
2021/03/27 06:19:41;;;;;;;10.55;2.30;;;5.50;99.90;;;;;;4990943;28;20490;-92
2021/03/27 06:22:28;;;;;;;11.45;2.78;;;5.50;99.90;;;;;;4931634;29;20048;-95
2021/03/27 06:25:13;;;;;;;15.38;2.22;;;5.10;99.90;;;;;;4984075;28;20065;-95
2021/03/27 06:27:54;;;;;;;8.55;2.33;;;4.00;99.90;;;;;;4996903;28;20077;-95
2021/03/27 06:31:06;;;;;;;2.00;0.95;;;3.60;99.90;;;;;;4976804;28;20054;-96
2021/03/27 06:33:50;;;;;;;5.55;1.23;;;3.40;99.90;;;;;;5011761;28;20042;-94
2021/03/27 06:36:30;;;;;;;7.15;1.60;;;3.50;99.90;;;;;;4992369;28;20049;-95
2021/03/27 06:39:13;;;;;;;5.45;1.88;;;3.60;99.90;;;;;;4976366;28;20062;-95
2021/03/27 06:41:45;;;;;;;13.25;2.40;;;3.70;99.90;;;;;;5007158;28;20038;-95
2021/03/27 06:44:42;;;;;;;5.38;2.05;;;3.80;99.90;;;;;;4999844;28;20405;-96
2021/03/27 06:47:42;;;;;;;14.27;3.20;;;4.00;99.90;;;;;;4991731;28;20050;-93
2021/03/27 06:50:38;;;;;;;14.57;3.43;;;4.20;99.90;;;;;;4992951;28;20042;-93
2021/03/27 06:54:03;;;;;;;8.27;2.75;;;4.40;99.90;;;;;;4994189;28;20042;-93
2021/03/27 06:56:58;;;;;;;7.93;2.33;;;4.40;99.90;;;;;;4946909;29;20054;-91
2021/03/27 06:59:48;;;;;;;11.85;2.72;;;4.50;99.90;;;;;;4941863;29;20515;-92
2021/03/27 07:02:52;;;;;;;5.90;1.98;;;4.60;99.90;;;;;;4994272;28;20859;-94
2021/03/27 07:05:33;;;;;;;8.00;2.50;;;4.70;99.90;;;;;;4998226;28;20041;-95
2021/03/27 07:08:17;;;;;;;13.45;1.90;;;4.80;99.90;;;;;;4979455;28;20062;-92
2021/03/27 07:11:04;;;;;;;10.93;2.08;;;4.80;99.90;;;;;;5007532;28;20829;-93
2021/03/27 07:14:05;;;;;;;10.40;2.15;;;4.90;99.90;;;;;;4994334;28;20422;-94
2021/03/27 07:16:40;;;;;;;12.77;1.95;;;4.90;99.90;;;;;;5019007;28;20087;-94
2021/03/27 07:19:30;;;;;;;14.15;2.30;;;5.00;99.90;;;;;;5001250;28;20516;-93
2021/03/27 07:22:07;;;;;;;14.43;2.72;;;5.10;99.90;;;;;;5008261;28;20042;-94
2021/03/27 07:25:09;;;;;;;8.38;2.40;;;5.10;99.90;;;;;;5022018;28;20120;-93
2021/03/27 07:28:13;;;;;;;10.52;2.30;;;5.10;99.90;;;;;;5003148;28;20129;-92
2021/03/27 07:30:42;;;;;;;12.63;2.67;;;5.20;99.90;;;;;;5013813;28;20056;-93
2021/03/27 07:33:34;;;;;;;14.80;2.35;;;5.30;99.90;;;;;;4996775;28;20033;-92
2021/03/27 07:36:21;;;;;;;13.48;2.33;;;5.30;99.90;;;;;;5016476;28;20486;-92
2021/03/27 07:39:25;;;;;;;14.35;3.00;;;5.30;99.90;;;;;;5017987;28;20051;-93
2021/03/27 07:42:25;;;;;;;15.20;2.95;;;5.40;99.90;;;;;;5005536;28;20523;-93
2021/03/27 07:45:15;;;;;;;11.98;2.17;;;5.50;99.90;;;;;;5019083;28;20041;-93
2021/03/27 07:47:50;;;;;;;21.35;2.70;;;5.60;99.90;;;;;;5023526;28;20072;-92
2021/03/27 07:50:36;;;;;;;15.20;2.53;;;5.70;99.90;;;;;;5008388;28;20052;-93
2021/03/27 07:53:40;;;;;;;18.20;3.15;;;5.70;99.90;;;;;;5001748;28;20046;-92
2021/03/27 07:56:15;;;;;;;17.63;3.28;;;5.90;99.90;;;;;;5005138;28;20046;-93
2021/03/27 07:58:53;;;;;;;22.67;2.97;;;6.00;99.90;;;;;;5023779;28;20052;-93
2021/03/27 08:01:50;;;;;;;22.13;3.22;;;6.10;99.90;;;;;;5001495;28;20048;-93
2021/03/27 08:04:39;;;;;;;23.08;3.10;;;6.10;99.90;;;;;;5016282;28;20049;-94
2021/03/27 08:07:33;;;;;;;21.77;3.08;;;6.20;99.90;;;;;;5013082;28;20038;-90
2021/03/27 08:10:18;;;;;;;15.35;3.00;;;6.30;99.90;;;;;;4967328;28;20054;-90
2021/03/27 08:13:08;;;;;;;14.68;3.85;;;6.40;99.90;;;;;;4999989;28;20049;-94
2021/03/27 08:16:01;;;;;;;27.52;2.67;;;6.50;99.90;;;;;;4991992;28;20057;-92
2021/03/27 08:18:59;;;;;;;25.35;4.45;;;6.60;99.90;;;;;;5009743;28;20069;-94
2021/03/27 08:21:54;;;;;;;23.50;3.85;;;6.70;99.90;;;;;;5008298;28;20166;-95
2021/03/27 08:24:19;;;;;;;17.50;3.17;;;6.80;99.90;;;;;;4997314;28;20042;-92
2021/03/27 08:27:07;;;;;;;16.52;3.30;;;6.90;99.90;;;;;;4996175;28;20056;-92
2021/03/27 08:29:58;;;;;;;29.92;3.88;;;6.90;99.90;;;;;;4995941;28;20049;-91
2021/03/27 08:32:43;;;;;;;;;;;6.90;99.90;;;;;;5008536;28;20049;-95
2021/03/27 08:35:41;;;;;;;25.60;4.35;;;6.90;99.90;;;;;;5006989;28;19921;-91
2021/03/27 08:38:31;;;;;;;27.98;3.85;;;6.90;99.90;;;;;;4992533;28;20038;-91
2021/03/27 08:41:35;;;;;;;24.02;3.67;;;6.90;99.90;;;;;;5002424;28;20479;-90
2021/03/27 08:44:23;;;;;;;20.85;4.20;;;6.80;99.90;;;;;;4983534;28;20066;-89
2021/03/27 08:46:53;;;;;;;22.20;3.80;;;6.70;99.90;;;;;;4989235;28;20042;-88
2021/03/27 08:49:48;;;;;;;23.33;4.07;;;6.60;99.90;;;;;;4987031;28;20049;-89
2021/03/27 08:52:55;;;;;;;23.35;4.28;;;6.50;99.90;;;;;;5010031;28;20087;-88
2021/03/27 08:55:21;;;;;;;20.55;3.63;;;6.50;99.90;;;;;;4999174;28;20587;-90
2021/03/27 08:58:17;;;;;;;16.23;4.15;;;6.40;99.90;;;;;;4992587;28;20053;-89
2021/03/27 09:00:55;;;;;;;18.42;3.28;;;6.40;99.90;;;;;;5000290;28;20085;-90
2021/03/27 09:04:01;;;;;;;27.58;4.72;;;6.60;99.90;;;;;;5000548;28;20125;-90
2021/03/27 09:06:33;;;;;;;18.58;3.75;;;6.80;99.90;;;;;;5010340;28;20037;-89
2021/03/27 09:09:18;;;;;;;12.77;2.35;;;7.00;99.90;;;;;;5026026;28;20049;-89
2021/03/27 09:12:14;;;;;;;13.43;2.20;;;6.40;99.90;;;;;;5008733;28;20048;-90
2021/03/27 09:14:55;;;;;;;21.92;3.55;;;6.20;99.90;;;;;;5009306;28;20038;-89
2021/03/27 09:17:53;;;;;;;15.88;2.50;;;6.10;99.90;;;;;;4990686;28;20046;-89
2021/03/27 09:20:20;;;;;;;17.50;3.25;;;6.20;99.90;;;;;;5008472;28;20048;-89
2021/03/27 09:22:55;;;;;;;13.27;2.75;;;6.40;99.90;;;;;;4990955;28;20121;-89
2021/03/27 09:25:45;;;;;;;15.88;3.17;;;6.60;99.90;;;;;;4993511;28;20414;-88
2021/03/27 09:28:39;;;;;;;19.95;3.53;;;6.90;99.90;;;;;;5010838;28;20046;-89
2021/03/27 09:31:30;;;;;;;15.95;2.97;;;7.00;99.90;;;;;;5011939;28;20092;-90
2021/03/27 09:34:22;;;;;;;15.77;3.03;;;6.50;99.90;;;;;;5011809;28;20092;-89
2021/03/27 09:37:28;;;;;;;16.08;3.33;;;6.20;99.90;;;;;;5011502;28;20533;-89
2021/03/27 09:40:09;;;;;;;14.43;2.65;;;6.10;99.90;;;;;;5010333;28;20072;-89
2021/03/27 09:42:49;;;;;;;15.77;2.72;;;6.20;99.90;;;;;;5011033;28;20054;-88
2021/03/27 09:45:45;;;;;;;21.70;3.22;;;6.30;99.90;;;;;;4997317;28;20068;-88
2021/03/27 09:48:30;;;;;;;18.85;3.35;;;6.50;99.90;;;;;;4980637;28;20053;-88
2021/03/27 09:51:18;;;;;;;17.63;3.65;;;6.60;99.90;;;;;;5009582;28;20046;-89
2021/03/27 09:53:49;;;;;;;15.25;2.85;;;6.80;99.90;;;;;;4990419;28;20116;-89
2021/03/27 09:56:32;;;;;;;16.90;4.00;;;7.00;99.90;;;;;;4992969;28;20050;-88
2021/03/27 09:59:17;;;;;;;27.98;4.90;;;7.20;99.90;;;;;;5010429;28;20521;-89
2021/03/27 10:01:51;;;;;;;16.98;3.95;;;7.30;99.90;;;;;;4976446;28;20037;-88
2021/03/27 10:04:23;;;;;;;17.67;3.13;;;7.00;99.90;;;;;;4973530;28;20140;-87
2021/03/27 10:07:08;;;;;;;16.27;3.28;;;6.90;99.90;;;;;;4996283;28;20095;-87
2021/03/27 10:09:52;;;;;;;16.02;3.22;;;6.80;99.90;;;;;;4986162;28;20103;-87
2021/03/27 10:12:58;;;;;;;16.48;3.83;;;6.70;99.90;;;;;;4984328;28;20041;-85
2021/03/27 10:15:51;;;;;;;21.25;3.60;;;6.80;99.90;;;;;;4978900;28;20047;-85
2021/03/27 10:18:38;;;;;;;14.80;2.70;;;6.80;99.90;;;;;;4984736;28;20557;-86
2021/03/27 10:21:26;;;;;;;13.13;1.77;;;7.00;99.90;;;;;;4994937;28;20121;-86
2021/03/27 10:24:09;;;;;;;16.80;3.30;;;7.30;99.90;;;;;;4978205;28;20059;-86
2021/03/27 10:26:56;;;;;;;11.32;2.10;;;7.20;99.90;;;;;;4987358;28;20174;-86
2021/03/27 10:29:37;;;;;;;13.98;3.40;;;7.20;99.90;;;;;;4991710;28;20031;-86
2021/03/27 10:32:30;;;;;;;15.73;3.10;;;7.20;99.90;;;;;;4989466;28;20041;-86
2021/03/27 10:35:18;;;;;;;17.33;3.55;;;7.20;99.90;;;;;;4988976;28;20046;-85
2021/03/27 10:38:05;;;;;;;19.33;3.13;;;6.90;99.90;;;;;;4977009;28;20065;-86
2021/03/27 10:40:45;;;;;;;18.73;3.30;;;6.90;99.90;;;;;;4968681;28;20478;-85
2021/03/27 10:43:48;;;;;;;23.60;3.85;;;6.80;99.90;;;;;;4979217;28;20071;-86
2021/03/27 10:46:38;;;;;;;15.75;3.00;;;7.10;99.90;;;;;;4974189;28;20038;-85
2021/03/27 10:49:23;;;;;;;17.13;2.95;;;7.30;99.90;;;;;;4991890;28;20261;-87
2021/03/27 10:52:19;;;;;;;20.77;3.40;;;7.50;99.90;;;;;;4995959;28;20042;-87
2021/03/27 10:55:19;;;;;;;20.70;3.30;;;7.40;99.90;;;;;;4973986;28;20134;-87
2021/03/27 10:58:06;;;;;;;21.35;4.30;;;7.30;99.90;;;;;;4994844;28;20092;-87
2021/03/27 11:00:57;;;;;;;18.20;3.85;;;7.20;99.90;;;;;;4983248;28;20064;-87
2021/03/27 11:03:51;;;;;;;17.90;2.83;;;7.20;99.90;;;;;;4987841;28;20509;-88
2021/03/27 11:06:28;;;;;;;19.77;3.83;;;7.30;99.90;;;;;;4966596;28;20125;-87
2021/03/27 11:09:12;;;;;;;18.02;2.60;;;7.40;99.90;;;;;;4975484;28;20046;-87
2021/03/27 11:11:49;;;;;;;20.75;3.28;;;7.50;99.90;;;;;;4988813;28;20042;-87
2021/03/27 11:14:29;;;;;;;16.27;3.25;;;7.60;99.90;;;;;;4989716;28;20459;-87
2021/03/27 11:16:58;;;;;;;16.50;2.90;;;7.80;99.90;;;;;;4980317;28;20042;-88
2021/03/27 11:19:39;;;;;;;16.63;3.00;;;7.90;99.90;;;;;;4989319;28;20046;-89
2021/03/27 11:22:05;;;;;;;9.20;2.60;;;8.10;99.90;;;;;;4966917;28;20073;-90
2021/03/27 11:24:58;;;;;;;18.50;3.65;;;8.20;99.90;;;;;;4989197;28;20065;-89
2021/03/27 11:28:02;;;;;;;16.98;2.50;;;8.40;99.90;;;;;;4991584;28;20119;-89
2021/03/27 11:30:41;;;;;;;20.17;3.88;;;8.60;99.90;;;;;;4976185;28;20072;-89
2021/03/27 11:33:24;;;;;;;20.70;4.05;;;8.80;99.80;;;;;;4974089;28;20046;-90
2021/03/27 11:36:08;;;;;;;21.67;3.40;;;8.70;99.60;;;;;;4973115;28;20471;-88
2021/03/27 11:38:58;;;;;;;20.88;4.22;;;8.40;99.90;;;;;;4988941;28;20125;-89
2021/03/27 11:41:32;;;;;;;12.27;2.33;;;8.10;99.90;;;;;;4991134;28;20046;-87
2021/03/27 11:44:25;;;;;;;13.95;3.08;;;8.00;99.90;;;;;;4988557;28;20042;-91
2021/03/27 11:46:59;;;;;;;16.45;3.33;;;8.10;99.90;;;;;;5000831;28;20226;-88
2021/03/27 11:49:39;;;;;;;19.17;3.63;;;8.10;99.90;;;;;;4987845;28;20065;-90
2021/03/27 11:52:23;;;;;;;24.45;3.50;;;8.20;99.90;;;;;;4992549;28;20038;-87
2021/03/27 11:55:13;;;;;;;19.83;3.08;;;8.70;99.90;;;;;;4976489;28;20042;-90
2021/03/27 11:57:45;;;;;;;;;;;8.80;99.90;;;;;;4975755;28;20034;-89
2021/03/27 12:00:50;;;;;;;7.90;1.73;;;8.40;99.90;;;;;;4991303;28;19943;-90
2021/03/27 12:03:31;;;;;;;12.65;2.22;;;7.70;99.90;;;;;;4995803;28;20125;-89
2021/03/27 12:06:28;;;;;;;16.00;2.83;;;7.60;99.90;;;;;;4996996;28;20076;-90
2021/03/27 12:09:09;;;;;;;8.25;2.15;;;8.10;99.90;;;;;;4979993;28;20395;-90
2021/03/27 12:11:56;;;;;;;7.85;1.67;;;8.30;99.90;;;;;;4998574;28;20115;-89
2021/03/27 12:14:45;;;;;;;10.73;1.90;;;8.10;99.90;;;;;;4988468;28;20043;-90
2021/03/27 12:17:43;;;;;;;5.30;0.80;;;7.70;99.90;;;;;;5002905;28;20153;-90
2021/03/27 12:20:21;;;;;;;6.20;1.50;;;7.50;99.90;;;;;;4991656;28;20034;-90
2021/03/27 12:23:08;;;;;;;5.10;1.33;;;7.30;99.90;;;;;;5003246;28;20045;-89
2021/03/27 12:26:04;;;;;;;7.65;1.90;;;7.20;99.90;;;;;;5011443;28;20069;-89
2021/03/27 12:28:52;;;;;;;15.30;2.90;;;7.20;99.90;;;;;;5010759;28;20053;-91
2021/03/27 12:31:30;;;;;;;10.60;2.20;;;7.20;99.90;;;;;;4997422;28;20031;-90
2021/03/27 12:34:17;;;;;;;10.20;2.33;;;7.20;99.90;;;;;;5013220;28;20052;-90
2021/03/27 12:37:07;;;;;;;10.55;1.90;;;7.30;99.90;;;;;;4998999;28;20042;-91
2021/03/27 12:39:51;;;;;;;6.15;1.50;;;7.40;99.90;;;;;;5012357;28;20045;-91
2021/03/27 12:42:42;;;;;;;11.07;1.80;;;8.00;99.90;;;;;;4995769;28;20096;-92
2021/03/27 12:45:18;;;;;;;3.25;1.20;;;8.10;99.90;;;;;;5004926;28;20057;-92
2021/03/27 12:47:58;;;;;;;6.20;2.15;;;8.10;99.90;;;;;;4995109;28;20533;-92
2021/03/27 12:50:30;;;;;;;9.40;1.52;;;8.50;99.90;;;;;;5008975;28;20040;-92
2021/03/27 12:52:59;;;;;;;13.43;1.83;;;8.30;99.90;;;;;;5006813;28;20045;-93
2021/03/27 12:55:25;;;;;;;9.35;1.23;;;8.00;99.90;;;;;;5014099;28;20482;-94
2021/03/27 12:57:54;;;;;;;4.35;1.10;;;7.80;99.90;;;;;;4992609;28;20042;-91
2021/03/27 13:00:42;;;;;;;9.73;1.20;;;7.50;99.90;;;;;;4993500;28;20069;-94
2021/03/27 13:03:32;;;;;;;8.43;1.92;;;7.20;99.90;;;;;;4995766;28;20046;-94
2021/03/27 13:06:33;;;;;;;8.52;1.67;;;7.10;99.90;;;;;;4992771;28;20045;-93
2021/03/27 13:09:11;;;;;;;15.00;1.77;;;7.10;99.90;;;;;;5013643;28;20564;-92
2021/03/27 13:11:58;;;;;;;13.13;1.85;;;7.00;99.90;;;;;;4997152;28;20043;-93
2021/03/27 13:14:39;;;;;;;10.30;2.47;;;6.80;99.90;;;;;;4994483;28;20135;-93
2021/03/27 13:17:24;;;;;;;15.75;2.08;;;6.50;99.90;;;;;;4995798;28;20119;-94
2021/03/27 13:20:09;;;;;;;15.02;2.10;;;6.40;99.90;;;;;;5008132;28;20034;-95
2021/03/27 13:22:41;;;;;;;19.90;3.80;;;6.50;99.90;;;;;;4988214;28;20453;-94
2021/03/27 13:25:51;;;;;;;16.08;3.28;;;6.60;99.90;;;;;;5007492;28;20471;-91
2021/03/27 13:28:29;;;;;;;17.88;4.50;;;6.80;99.90;;;;;;4987168;28;20451;-89
2021/03/27 13:31:17;;;;;;;21.98;3.10;;;6.90;99.90;;;;;;4991099;28;20045;-91
2021/03/27 13:33:59;;;;;;;19.02;2.88;;;6.70;99.90;;;;;;5008461;28;20408;-90
2021/03/27 13:36:33;;;;;;;10.30;1.77;;;6.50;99.90;;;;;;5006829;28;20171;-90
2021/03/27 13:39:15;;;;;;;19.88;3.28;;;6.40;99.90;;;;;;5002876;28;20053;-88
2021/03/27 13:42:15;;;;;;;20.90;3.35;;;6.70;99.90;;;;;;5009449;28;20117;-89
2021/03/27 13:44:41;;;;;;;;;;;7.10;99.90;;;;;;5007349;28;20045;-90
2021/03/27 13:47:16;;;;;;;14.82;2.90;;;7.60;99.90;;;;;;5010151;28;19972;-90
2021/03/27 13:50:12;;;;;;;20.63;4.53;;;7.40;99.90;;;;;;5010797;28;20040;-94
2021/03/27 13:53:05;;;;;;;23.10;4.00;;;7.00;99.90;;;;;;5005118;28;20034;-95
2021/03/27 13:55:51;;;;;;;20.20;4.43;;;6.50;99.90;;;;;;4992076;28;20042;-96
2021/03/27 13:58:32;;;;;;;18.30;2.78;;;6.30;99.90;;;;;;5008490;28;20049;-93
2021/03/27 14:01:23;;;;;;;21.08;4.15;;;6.20;99.90;;;;;;4991146;28;20829;-92
2021/03/27 14:04:10;;;;;;;30.60;4.00;;;6.20;99.90;;;;;;5009080;28;20060;-94
2021/03/27 14:06:43;;;;;;;28.73;4.97;;;6.60;99.90;;;;;;5024782;28;20065;-87
2021/03/27 14:09:19;;;;;;;16.67;3.20;;;7.10;99.90;;;;;;5009458;28;20041;-90
2021/03/27 14:12:06;;;;;;;18.63;3.58;;;7.30;99.90;;;;;;4997203;28;20117;-89
2021/03/27 14:14:39;;;;;;;19.75;4.20;;;7.60;99.90;;;;;;4991575;28;20040;-88
2021/03/27 14:17:17;;;;;;;14.63;2.70;;;7.60;99.90;;;;;;4993690;28;20037;-91
2021/03/27 14:20:07;;;;;;;22.15;3.60;;;7.90;99.90;;;;;;5011777;28;20042;-90
2021/03/27 14:23:07;;;;;;;15.60;3.03;;;8.40;99.90;;;;;;4995866;28;20104;-90
2021/03/27 14:25:48;;;;;;;10.75;2.63;;;8.90;99.90;;;;;;5005024;28;20050;-89